Beaver Falls, New York
Current Conditions -  °F | °C
As of 2:58 AM on Saturday 20 Dec 2014 (Local Time) from KGTB Reporting Station
Clear Clear  
Wind Chill: 11°   Ceiling: Unl
Heat Index: 11°   Visibility: 10mi
Dew Point:   Wind: 2mph
Humidity: 86%   Direction: 200°SSW
Pressure: 30.23"   Gusts: NA
Location:  43.89°N, 75.43°W
Report Text: KGTB 200758Z AUTO 20002KT 10SM CLR M12/M14 A3023 RMK AO2 SLP251 T11181137
Loading
Personal Weather Stations






























Interactive Weather Map New forecast layout! Learn more

10-Day Weather Forecast

Advertisements
Track Severe Weather on mobile